sensor_id;sensor_type;location;lat;lon;timestamp;temperature;humidity
7494;DHT22;3788;49.902;8.590;2024-02-15T00:00:15;11.00;99.90
7494;DHT22;3788;49.902;8.590;2024-02-15T00:02:43;10.90;99.90
7494;DHT22;3788;49.902;8.590;2024-02-15T00:05:10;10.90;99.90
7494;DHT22;3788;49.902;8.590;2024-02-15T00:07:41;10.90;99.90
7494;DHT22;3788;49.902;8.590;2024-02-15T00:10:09;10.90;99.90
7494;DHT22;3788;49.902;8.590;2024-02-15T00:12:36;10.90;99.90
7494;DHT22;3788;49.902;8.590;2024-02-15T00:15:04;10.90;99.90
7494;DHT22;3788;49.902;8.590;2024-02-15T00:17:30;10.90;99.90
7494;DHT22;3788;49.902;8.590;2024-02-15T00:19:59;10.80;99.90
7494;DHT22;3788;49.902;8.590;2024-02-15T00:22:26;10.80;99.90
7494;DHT22;3788;49.902;8.590;2024-02-15T00:24:53;10.80;99.90
7494;DHT22;3788;49.902;8.590;2024-02-15T00:27:19;10.80;99.90
7494;DHT22;3788;49.902;8.590;2024-02-15T00:29:46;10.80;99.90
7494;DHT22;3788;49.902;8.590;2024-02-15T00:32:13;10.80;99.90
7494;DHT22;3788;49.902;8.590;2024-02-15T00:34:39;10.80;99.90
7494;DHT22;3788;49.902;8.590;2024-02-15T00:37:08;10.80;99.90
7494;DHT22;3788;49.902;8.590;2024-02-15T00:39:35;10.90;99.90
7494;DHT22;3788;49.902;8.590;2024-02-15T00:42:01;10.90;99.90
7494;DHT22;3788;49.902;8.590;2024-02-15T00:44:28;10.90;99.90
7494;DHT22;3788;49.902;8.590;2024-02-15T00:46:55;10.90;99.90
7494;DHT22;3788;49.902;8.590;2024-02-15T00:49:22;10.90;99.90
7494;DHT22;3788;49.902;8.590;2024-02-15T00:51:49;11.00;99.90
7494;DHT22;3788;49.902;8.590;2024-02-15T00:54:17;10.90;99.90
7494;DHT22;3788;49.902;8.590;2024-02-15T00:56:43;11.00;99.90
7494;DHT22;3788;49.902;8.590;2024-02-15T00:59:10;10.90;99.90
7494;DHT22;3788;49.902;8.590;2024-02-15T01:01:37;10.90;99.90
7494;DHT22;3788;49.902;8.590;2024-02-15T01:04:04;10.90;99.90
7494;DHT22;3788;49.902;8.590;2024-02-15T01:06:31;11.00;99.90
7494;DHT22;3788;49.902;8.590;2024-02-15T01:08:58;11.00;99.90
7494;DHT22;3788;49.902;8.590;2024-02-15T01:11:29;11.00;99.90
7494;DHT22;3788;49.902;8.590;2024-02-15T01:13:57;11.00;99.90
7494;DHT22;3788;49.902;8.590;2024-02-15T01:16:24;11.00;99.90
7494;DHT22;3788;49.902;8.590;2024-02-15T01:18:50;11.10;99.90
7494;DHT22;3788;49.902;8.590;2024-02-15T01:21:17;11.10;99.90
7494;DHT22;3788;49.902;8.590;2024-02-15T01:23:44;11.10;99.90
7494;DHT22;3788;49.902;8.590;2024-02-15T01:26:11;11.10;99.90
7494;DHT22;3788;49.902;8.590;2024-02-15T01:28:41;11.10;99.90
7494;DHT22;3788;49.902;8.590;2024-02-15T01:31:08;11.10;99.90
7494;DHT22;3788;49.902;8.590;2024-02-15T01:33:36;11.20;99.90
7494;DHT22;3788;49.902;8.590;2024-02-15T01:36:03;11.20;99.90
7494;DHT22;3788;49.902;8.590;2024-02-15T01:38:30;11.20;99.90
7494;DHT22;3788;49.902;8.590;2024-02-15T01:40:57;11.20;99.90
7494;DHT22;3788;49.902;8.590;2024-02-15T01:43:24;11.20;99.90
7494;DHT22;3788;49.902;8.590;2024-02-15T01:45:52;11.30;99.90
7494;DHT22;3788;49.902;8.590;2024-02-15T01:48:18;11.20;99.90
7494;DHT22;3788;49.902;8.590;2024-02-15T01:50:45;11.20;99.90
7494;DHT22;3788;49.902;8.590;2024-02-15T01:53:14;11.20;99.90
7494;DHT22;3788;49.902;8.590;2024-02-15T01:55:40;11.30;99.90
7494;DHT22;3788;49.902;8.590;2024-02-15T01:58:07;11.30;99.90
7494;DHT22;3788;49.902;8.590;2024-02-15T02:00:35;11.30;99.90
7494;DHT22;3788;49.902;8.590;2024-02-15T02:03:05;11.30;99.90
7494;DHT22;3788;49.902;8.590;2024-02-15T02:05:32;11.30;99.90
7494;DHT22;3788;49.902;8.590;2024-02-15T02:07:58;11.30;99.90
7494;DHT22;3788;49.902;8.590;2024-02-15T02:10:29;11.30;99.90
7494;DHT22;3788;49.902;8.590;2024-02-15T02:12:58;11.30;99.90
7494;DHT22;3788;49.902;8.590;2024-02-15T02:15:25;11.30;99.90
7494;DHT22;3788;49.902;8.590;2024-02-15T02:17:51;11.30;99.90
7494;DHT22;3788;49.902;8.590;2024-02-15T02:20:19;11.30;99.90
7494;DHT22;3788;49.902;8.590;2024-02-15T02:22:48;11.30;99.90
7494;DHT22;3788;49.902;8.590;2024-02-15T02:25:18;11.30;99.90
7494;DHT22;3788;49.902;8.590;2024-02-15T02:27:45;11.30;99.90
7494;DHT22;3788;49.902;8.590;2024-02-15T02:30:14;11.30;99.90
7494;DHT22;3788;49.902;8.590;2024-02-15T02:32:43;11.30;99.90
7494;DHT22;3788;49.902;8.590;2024-02-15T02:35:09;11.30;99.90
7494;DHT22;3788;49.902;8.590;2024-02-15T02:37:38;11.30;99.90
7494;DHT22;3788;49.902;8.590;2024-02-15T02:40:05;11.30;99.90
7494;DHT22;3788;49.902;8.590;2024-02-15T02:42:35;11.30;99.90
7494;DHT22;3788;49.902;8.590;2024-02-15T02:45:02;11.30;99.90
7494;DHT22;3788;49.902;8.590;2024-02-15T02:47:30;11.30;99.90
7494;DHT22;3788;49.902;8.590;2024-02-15T02:49:57;11.30;99.90
7494;DHT22;3788;49.902;8.590;2024-02-15T02:52:23;11.30;99.90
7494;DHT22;3788;49.902;8.590;2024-02-15T02:54:50;11.30;99.90
7494;DHT22;3788;49.902;8.590;2024-02-15T02:57:17;11.30;99.90
7494;DHT22;3788;49.902;8.590;2024-02-15T02:59:45;11.30;99.90
7494;DHT22;3788;49.902;8.590;2024-02-15T03:02:12;11.30;99.90
7494;DHT22;3788;49.902;8.590;2024-02-15T03:04:39;11.30;99.90
7494;DHT22;3788;49.902;8.590;2024-02-15T03:07:06;11.30;99.90
7494;DHT22;3788;49.902;8.590;2024-02-15T03:09:32;11.30;99.90
7494;DHT22;3788;49.902;8.590;2024-02-15T03:11:59;11.30;99.90
7494;DHT22;3788;49.902;8.590;2024-02-15T03:14:26;11.30;99.90
7494;DHT22;3788;49.902;8.590;2024-02-15T03:16:57;11.30;99.90
7494;DHT22;3788;49.902;8.590;2024-02-15T03:19:23;11.30;99.90
7494;DHT22;3788;49.902;8.590;2024-02-15T03:21:51;11.30;99.90
7494;DHT22;3788;49.902;8.590;2024-02-15T03:24:18;11.30;99.90
7494;DHT22;3788;49.902;8.590;2024-02-15T03:26:45;11.30;99.90
7494;DHT22;3788;49.902;8.590;2024-02-15T03:29:11;11.30;99.90
7494;DHT22;3788;49.902;8.590;2024-02-15T03:31:38;11.30;99.90
7494;DHT22;3788;49.902;8.590;2024-02-15T03:34:06;11.30;99.90
7494;DHT22;3788;49.902;8.590;2024-02-15T03:36:36;11.30;99.90
7494;DHT22;3788;49.902;8.590;2024-02-15T03:39:03;11.20;99.90
7494;DHT22;3788;49.902;8.590;2024-02-15T03:41:31;11.30;99.90
7494;DHT22;3788;49.902;8.590;2024-02-15T03:43:58;11.20;99.90
7494;DHT22;3788;49.902;8.590;2024-02-15T03:46:25;11.20;99.90
7494;DHT22;3788;49.902;8.590;2024-02-15T03:48:53;11.20;99.90
7494;DHT22;3788;49.902;8.590;2024-02-15T03:51:23;11.20;99.90
7494;DHT22;3788;49.902;8.590;2024-02-15T03:53:50;11.20;99.90
7494;DHT22;3788;49.902;8.590;2024-02-15T03:56:17;11.20;99.90
7494;DHT22;3788;49.902;8.590;2024-02-15T03:58:44;11.20;99.90
7494;DHT22;3788;49.902;8.590;2024-02-15T04:01:11;11.20;99.90
7494;DHT22;3788;49.902;8.590;2024-02-15T04:03:40;11.20;99.90
7494;DHT22;3788;49.902;8.590;2024-02-15T04:06:07;11.20;99.90
7494;DHT22;3788;49.902;8.590;2024-02-15T04:08:36;11.20;99.90
7494;DHT22;3788;49.902;8.590;2024-02-15T04:11:04;11.20;99.90
7494;DHT22;3788;49.902;8.590;2024-02-15T04:13:32;11.20;99.90
7494;DHT22;3788;49.902;8.590;2024-02-15T04:15:59;11.10;99.90
7494;DHT22;3788;49.902;8.590;2024-02-15T04:18:26;11.10;99.90
7494;DHT22;3788;49.902;8.590;2024-02-15T04:20:57;11.10;99.90
7494;DHT22;3788;49.902;8.590;2024-02-15T04:23:24;11.10;99.90
7494;DHT22;3788;49.902;8.590;2024-02-15T04:25:52;11.10;99.90
7494;DHT22;3788;49.902;8.590;2024-02-15T04:28:19;11.10;99.90
7494;DHT22;3788;49.902;8.590;2024-02-15T04:30:46;11.10;99.90
7494;DHT22;3788;49.902;8.590;2024-02-15T04:33:14;11.10;99.90
7494;DHT22;3788;49.902;8.590;2024-02-15T04:35:41;11.10;99.90
7494;DHT22;3788;49.902;8.590;2024-02-15T04:38:08;11.10;99.90
7494;DHT22;3788;49.902;8.590;2024-02-15T04:40:35;11.10;99.90
7494;DHT22;3788;49.902;8.590;2024-02-15T04:43:04;11.10;99.90
7494;DHT22;3788;49.902;8.590;2024-02-15T04:45:32;11.10;99.90
7494;DHT22;3788;49.902;8.590;2024-02-15T04:47:58;11.10;99.90
7494;DHT22;3788;49.902;8.590;2024-02-15T04:50:27;11.20;99.90
7494;DHT22;3788;49.902;8.590;2024-02-15T04:52:54;11.20;99.90
7494;DHT22;3788;49.902;8.590;2024-02-15T04:55:21;11.20;99.90
7494;DHT22;3788;49.902;8.590;2024-02-15T04:57:48;11.20;99.90
7494;DHT22;3788;49.902;8.590;2024-02-15T05:00:22;11.20;99.90
7494;DHT22;3788;49.902;8.590;2024-02-15T05:02:48;11.20;99.90
7494;DHT22;3788;49.902;8.590;2024-02-15T05:05:15;11.20;99.90
7494;DHT22;3788;49.902;8.590;2024-02-15T05:07:42;11.30;99.90
7494;DHT22;3788;49.902;8.590;2024-02-15T05:10:09;11.30;99.90
7494;DHT22;3788;49.902;8.590;2024-02-15T05:12:37;11.30;99.90
7494;DHT22;3788;49.902;8.590;2024-02-15T05:15:04;11.30;99.90
7494;DHT22;3788;49.902;8.590;2024-02-15T05:17:37;11.30;99.90
7494;DHT22;3788;49.902;8.590;2024-02-15T05:20:07;11.30;99.90
7494;DHT22;3788;49.902;8.590;2024-02-15T05:22:36;11.30;99.90
7494;DHT22;3788;49.902;8.590;2024-02-15T05:25:04;11.30;99.90
7494;DHT22;3788;49.902;8.590;2024-02-15T05:27:31;11.40;99.90
7494;DHT22;3788;49.902;8.590;2024-02-15T05:29:58;11.40;99.90
7494;DHT22;3788;49.902;8.590;2024-02-15T05:32:25;11.40;99.90
7494;DHT22;3788;49.902;8.590;2024-02-15T05:34:54;11.40;99.90
7494;DHT22;3788;49.902;8.590;2024-02-15T05:37:20;11.40;99.90
7494;DHT22;3788;49.902;8.590;2024-02-15T05:39:48;11.40;99.90
7494;DHT22;3788;49.902;8.590;2024-02-15T05:42:18;11.40;99.90
7494;DHT22;3788;49.902;8.590;2024-02-15T05:44:45;11.40;99.90
7494;DHT22;3788;49.902;8.590;2024-02-15T05:47:12;11.40;99.90
7494;DHT22;3788;49.902;8.590;2024-02-15T05:49:38;11.40;99.90
7494;DHT22;3788;49.902;8.590;2024-02-15T05:52:07;11.40;99.90
7494;DHT22;3788;49.902;8.590;2024-02-15T05:54:34;11.40;99.90
7494;DHT22;3788;49.902;8.590;2024-02-15T05:57:01;11.40;99.90
7494;DHT22;3788;49.902;8.590;2024-02-15T05:59:27;11.40;99.90
7494;DHT22;3788;49.902;8.590;2024-02-15T06:01:54;11.40;99.90
7494;DHT22;3788;49.902;8.590;2024-02-15T06:04:21;11.40;99.90
7494;DHT22;3788;49.902;8.590;2024-02-15T06:06:48;11.50;99.90
7494;DHT22;3788;49.902;8.590;2024-02-15T06:09:17;11.50;99.90
7494;DHT22;3788;49.902;8.590;2024-02-15T06:11:47;11.50;99.90
7494;DHT22;3788;49.902;8.590;2024-02-15T06:14:15;11.50;99.90
7494;DHT22;3788;49.902;8.590;2024-02-15T06:16:43;11.50;99.90
7494;DHT22;3788;49.902;8.590;2024-02-15T06:19:10;11.50;99.90
7494;DHT22;3788;49.902;8.590;2024-02-15T06:21:36;11.50;99.90
7494;DHT22;3788;49.902;8.590;2024-02-15T06:24:04;11.50;99.90
7494;DHT22;3788;49.902;8.590;2024-02-15T06:26:32;11.50;99.90
7494;DHT22;3788;49.902;8.590;2024-02-15T06:29:00;11.50;99.90
7494;DHT22;3788;49.902;8.590;2024-02-15T06:31:44;11.60;99.90
7494;DHT22;3788;49.902;8.590;2024-02-15T06:34:28;11.60;99.90
7494;DHT22;3788;49.902;8.590;2024-02-15T06:37:36;11.60;99.90
7494;DHT22;3788;49.902;8.590;2024-02-15T06:40:20;11.60;99.90
7494;DHT22;3788;49.902;8.590;2024-02-15T06:42:48;11.60;99.90
7494;DHT22;3788;49.902;8.590;2024-02-15T06:45:15;11.60;99.90
7494;DHT22;3788;49.902;8.590;2024-02-15T06:47:43;11.60;99.90
7494;DHT22;3788;49.902;8.590;2024-02-15T06:50:10;11.60;99.90
7494;DHT22;3788;49.902;8.590;2024-02-15T06:52:37;11.60;99.90
7494;DHT22;3788;49.902;8.590;2024-02-15T06:55:06;11.60;99.90
7494;DHT22;3788;49.902;8.590;2024-02-15T06:57:33;11.60;99.90
7494;DHT22;3788;49.902;8.590;2024-02-15T07:00:02;11.60;99.90
7494;DHT22;3788;49.902;8.590;2024-02-15T07:02:33;11.60;99.90
7494;DHT22;3788;49.902;8.590;2024-02-15T07:04:59;11.60;99.90
7494;DHT22;3788;49.902;8.590;2024-02-15T07:07:27;11.60;99.90
7494;DHT22;3788;49.902;8.590;2024-02-15T07:09:54;11.60;99.90
7494;DHT22;3788;49.902;8.590;2024-02-15T07:12:21;11.60;99.90
7494;DHT22;3788;49.902;8.590;2024-02-15T07:14:48;11.60;99.90
7494;DHT22;3788;49.902;8.590;2024-02-15T07:17:16;11.70;99.90
7494;DHT22;3788;49.902;8.590;2024-02-15T07:19:43;11.60;99.90
7494;DHT22;3788;49.902;8.590;2024-02-15T07:22:10;11.70;99.90
7494;DHT22;3788;49.902;8.590;2024-02-15T07:24:37;11.70;99.90
7494;DHT22;3788;49.902;8.590;2024-02-15T07:27:04;11.70;99.90
7494;DHT22;3788;49.902;8.590;2024-02-15T07:29:31;11.70;99.90
7494;DHT22;3788;49.902;8.590;2024-02-15T07:31:58;11.70;99.90
7494;DHT22;3788;49.902;8.590;2024-02-15T07:34:26;11.80;99.90
7494;DHT22;3788;49.902;8.590;2024-02-15T07:36:52;11.80;99.90
7494;DHT22;3788;49.902;8.590;2024-02-15T07:39:19;11.80;99.90
7494;DHT22;3788;49.902;8.590;2024-02-15T07:41:50;11.80;99.90
7494;DHT22;3788;49.902;8.590;2024-02-15T07:44:17;11.90;99.90
7494;DHT22;3788;49.902;8.590;2024-02-15T07:46:44;11.90;99.90
7494;DHT22;3788;49.902;8.590;2024-02-15T07:49:12;11.90;99.90
7494;DHT22;3788;49.902;8.590;2024-02-15T07:51:40;12.00;99.90
7494;DHT22;3788;49.902;8.590;2024-02-15T07:54:07;12.00;99.90
7494;DHT22;3788;49.902;8.590;2024-02-15T07:56:33;12.00;99.90
7494;DHT22;3788;49.902;8.590;2024-02-15T07:59:01;12.10;99.90
7494;DHT22;3788;49.902;8.590;2024-02-15T08:01:28;12.10;99.90
7494;DHT22;3788;49.902;8.590;2024-02-15T08:03:56;12.10;99.90
7494;DHT22;3788;49.902;8.590;2024-02-15T08:06:23;12.20;99.90
7494;DHT22;3788;49.902;8.590;2024-02-15T08:08:54;12.30;99.90
7494;DHT22;3788;49.902;8.590;2024-02-15T08:11:21;12.30;99.90
7494;DHT22;3788;49.902;8.590;2024-02-15T08:13:50;12.30;99.90
7494;DHT22;3788;49.902;8.590;2024-02-15T08:16:20;12.40;99.90
7494;DHT22;3788;49.902;8.590;2024-02-15T08:18:48;12.40;99.90
7494;DHT22;3788;49.902;8.590;2024-02-15T08:21:18;12.40;99.90
7494;DHT22;3788;49.902;8.590;2024-02-15T08:23:46;12.50;99.90
7494;DHT22;3788;49.902;8.590;2024-02-15T08:26:14;12.50;99.90
7494;DHT22;3788;49.902;8.590;2024-02-15T08:28:42;12.50;99.90
7494;DHT22;3788;49.902;8.590;2024-02-15T08:31:09;12.50;99.90
7494;DHT22;3788;49.902;8.590;2024-02-15T08:33:37;12.60;99.90
7494;DHT22;3788;49.902;8.590;2024-02-15T08:36:04;12.60;99.90
7494;DHT22;3788;49.902;8.590;2024-02-15T08:38:32;12.70;99.90
7494;DHT22;3788;49.902;8.590;2024-02-15T08:40:59;12.70;99.90
7494;DHT22;3788;49.902;8.590;2024-02-15T08:43:27;12.70;99.90
7494;DHT22;3788;49.902;8.590;2024-02-15T08:45:54;12.80;99.90
7494;DHT22;3788;49.902;8.590;2024-02-15T08:48:20;12.80;99.90
7494;DHT22;3788;49.902;8.590;2024-02-15T08:50:48;12.80;99.90
7494;DHT22;3788;49.902;8.590;2024-02-15T08:53:14;12.90;99.90
7494;DHT22;3788;49.902;8.590;2024-02-15T08:55:41;12.90;99.90
7494;DHT22;3788;49.902;8.590;2024-02-15T08:58:08;12.90;99.90
7494;DHT22;3788;49.902;8.590;2024-02-15T09:00:36;13.00;99.90
7494;DHT22;3788;49.902;8.590;2024-02-15T09:03:09;13.00;99.90
7494;DHT22;3788;49.902;8.590;2024-02-15T09:05:36;13.10;99.90
7494;DHT22;3788;49.902;8.590;2024-02-15T09:08:03;13.10;99.90
7494;DHT22;3788;49.902;8.590;2024-02-15T09:10:30;13.20;99.90
7494;DHT22;3788;49.902;8.590;2024-02-15T09:12:56;13.30;99.90
7494;DHT22;3788;49.902;8.590;2024-02-15T09:15:23;13.40;99.90
7494;DHT22;3788;49.902;8.590;2024-02-15T09:17:51;13.40;99.90
7494;DHT22;3788;49.902;8.590;2024-02-15T09:20:20;13.50;99.90
7494;DHT22;3788;49.902;8.590;2024-02-15T09:22:48;13.60;99.90
7494;DHT22;3788;49.902;8.590;2024-02-15T09:25:15;13.60;99.90
7494;DHT22;3788;49.902;8.590;2024-02-15T09:27:43;13.60;99.90
7494;DHT22;3788;49.902;8.590;2024-02-15T09:30:10;13.70;99.90
7494;DHT22;3788;49.902;8.590;2024-02-15T09:32:38;13.70;99.90
7494;DHT22;3788;49.902;8.590;2024-02-15T09:35:08;13.70;99.90
7494;DHT22;3788;49.902;8.590;2024-02-15T09:37:35;13.80;99.90
7494;DHT22;3788;49.902;8.590;2024-02-15T09:40:03;13.70;99.90
7494;DHT22;3788;49.902;8.590;2024-02-15T09:42:32;13.70;99.90
7494;DHT22;3788;49.902;8.590;2024-02-15T09:45:00;13.80;99.90
7494;DHT22;3788;49.902;8.590;2024-02-15T09:47:31;13.80;99.90
7494;DHT22;3788;49.902;8.590;2024-02-15T09:50:00;13.90;99.90
7494;DHT22;3788;49.902;8.590;2024-02-15T09:52:29;13.90;99.90
7494;DHT22;3788;49.902;8.590;2024-02-15T09:54:59;13.90;99.90
7494;DHT22;3788;49.902;8.590;2024-02-15T09:57:26;13.90;99.90
7494;DHT22;3788;49.902;8.590;2024-02-15T09:59:54;14.00;99.90
7494;DHT22;3788;49.902;8.590;2024-02-15T10:02:21;14.00;99.90
7494;DHT22;3788;49.902;8.590;2024-02-15T10:04:48;14.10;99.90
7494;DHT22;3788;49.902;8.590;2024-02-15T10:07:16;14.10;99.90
7494;DHT22;3788;49.902;8.590;2024-02-15T10:09:45;14.20;99.90
7494;DHT22;3788;49.902;8.590;2024-02-15T10:12:11;14.30;99.90
7494;DHT22;3788;49.902;8.590;2024-02-15T10:14:38;14.40;99.90
7494;DHT22;3788;49.902;8.590;2024-02-15T10:17:09;14.50;99.90
7494;DHT22;3788;49.902;8.590;2024-02-15T10:19:36;14.70;99.90
7494;DHT22;3788;49.902;8.590;2024-02-15T10:22:07;14.80;99.90
7494;DHT22;3788;49.902;8.590;2024-02-15T10:24:33;14.90;99.90
7494;DHT22;3788;49.902;8.590;2024-02-15T10:27:02;14.90;99.90
7494;DHT22;3788;49.902;8.590;2024-02-15T10:29:32;14.90;99.90
7494;DHT22;3788;49.902;8.590;2024-02-15T10:32:00;14.90;99.90
7494;DHT22;3788;49.902;8.590;2024-02-15T10:34:28;14.90;99.90
7494;DHT22;3788;49.902;8.590;2024-02-15T10:37:09;15.00;99.90
7494;DHT22;3788;49.902;8.590;2024-02-15T10:39:36;15.10;99.90
7494;DHT22;3788;49.902;8.590;2024-02-15T10:42:06;15.20;99.90
7494;DHT22;3788;49.902;8.590;2024-02-15T10:44:35;15.40;99.90
7494;DHT22;3788;49.902;8.590;2024-02-15T10:47:04;15.40;99.90
7494;DHT22;3788;49.902;8.590;2024-02-15T10:49:33;15.50;99.90
7494;DHT22;3788;49.902;8.590;2024-02-15T10:52:01;15.50;99.90
7494;DHT22;3788;49.902;8.590;2024-02-15T10:54:41;15.50;99.90
7494;DHT22;3788;49.902;8.590;2024-02-15T10:57:11;15.50;99.90
7494;DHT22;3788;49.902;8.590;2024-02-15T10:59:45;15.60;99.90
7494;DHT22;3788;49.902;8.590;2024-02-15T11:02:27;15.60;99.90
7494;DHT22;3788;49.902;8.590;2024-02-15T11:04:59;15.60;99.90
7494;DHT22;3788;49.902;8.590;2024-02-15T11:07:29;15.70;99.90
7494;DHT22;3788;49.902;8.590;2024-02-15T11:09:59;15.70;99.90
7494;DHT22;3788;49.902;8.590;2024-02-15T11:12:29;15.60;99.90
7494;DHT22;3788;49.902;8.590;2024-02-15T11:14:56;15.60;99.90
7494;DHT22;3788;49.902;8.590;2024-02-15T11:17:45;15.50;99.90
7494;DHT22;3788;49.902;8.590;2024-02-15T11:20:45;15.40;99.90
7494;DHT22;3788;49.902;8.590;2024-02-15T11:23:24;15.40;99.90
7494;DHT22;3788;49.902;8.590;2024-02-15T11:25:52;15.40;99.90
7494;DHT22;3788;49.902;8.590;2024-02-15T11:28:38;15.50;99.90
7494;DHT22;3788;49.902;8.590;2024-02-15T11:31:10;15.60;99.90
7494;DHT22;3788;49.902;8.590;2024-02-15T11:33:58;15.60;99.90
7494;DHT22;3788;49.902;8.590;2024-02-15T11:36:30;15.60;99.90
7494;DHT22;3788;49.902;8.590;2024-02-15T11:38:58;15.70;99.90
7494;DHT22;3788;49.902;8.590;2024-02-15T11:41:24;15.70;99.90
7494;DHT22;3788;49.902;8.590;2024-02-15T11:43:53;15.80;99.90
7494;DHT22;3788;49.902;8.590;2024-02-15T11:46:24;15.80;99.90
7494;DHT22;3788;49.902;8.590;2024-02-15T11:48:53;15.90;99.90
7494;DHT22;3788;49.902;8.590;2024-02-15T11:51:28;15.80;99.90
7494;DHT22;3788;49.902;8.590;2024-02-15T11:54:02;15.70;99.90
7494;DHT22;3788;49.902;8.590;2024-02-15T11:56:33;15.70;99.90
7494;DHT22;3788;49.902;8.590;2024-02-15T11:59:18;15.70;99.90
7494;DHT22;3788;49.902;8.590;2024-02-15T12:01:55;15.70;99.90
7494;DHT22;3788;49.902;8.590;2024-02-15T12:04:39;15.70;99.90
7494;DHT22;3788;49.902;8.590;2024-02-15T12:07:23;15.70;99.90
7494;DHT22;3788;49.902;8.590;2024-02-15T12:10:07;15.70;99.90
7494;DHT22;3788;49.902;8.590;2024-02-15T12:12:51;15.80;99.90
7494;DHT22;3788;49.902;8.590;2024-02-15T12:15:37;15.80;99.90
7494;DHT22;3788;49.902;8.590;2024-02-15T12:18:35;15.90;99.90
7494;DHT22;3788;49.902;8.590;2024-02-15T12:21:08;16.00;99.90
7494;DHT22;3788;49.902;8.590;2024-02-15T12:23:38;16.00;99.90
7494;DHT22;3788;49.902;8.590;2024-02-15T12:26:06;16.00;99.90
7494;DHT22;3788;49.902;8.590;2024-02-15T12:28:34;16.00;99.90
7494;DHT22;3788;49.902;8.590;2024-02-15T12:31:03;16.10;99.90
7494;DHT22;3788;49.902;8.590;2024-02-15T12:33:32;16.10;99.90
7494;DHT22;3788;49.902;8.590;2024-02-15T12:36:04;16.20;99.90
7494;DHT22;3788;49.902;8.590;2024-02-15T12:38:31;16.20;99.90
7494;DHT22;3788;49.902;8.590;2024-02-15T12:40:59;16.20;99.90
7494;DHT22;3788;49.902;8.590;2024-02-15T12:43:27;16.30;99.90
7494;DHT22;3788;49.902;8.590;2024-02-15T12:45:54;16.40;99.90
7494;DHT22;3788;49.902;8.590;2024-02-15T12:48:23;16.50;99.90
7494;DHT22;3788;49.902;8.590;2024-02-15T12:50:50;16.50;99.60
7494;DHT22;3788;49.902;8.590;2024-02-15T12:53:21;16.50;99.20
7494;DHT22;3788;49.902;8.590;2024-02-15T12:55:53;16.40;98.70
7494;DHT22;3788;49.902;8.590;2024-02-15T12:58:21;16.40;98.80
7494;DHT22;3788;49.902;8.590;2024-02-15T13:00:50;16.40;98.00
7494;DHT22;3788;49.902;8.590;2024-02-15T13:03:16;16.40;98.00
7494;DHT22;3788;49.902;8.590;2024-02-15T13:05:44;16.40;98.20
7494;DHT22;3788;49.902;8.590;2024-02-15T13:08:14;16.50;98.50
7494;DHT22;3788;49.902;8.590;2024-02-15T13:10:43;16.60;98.90
7494;DHT22;3788;49.902;8.590;2024-02-15T13:13:10;16.60;98.90
7494;DHT22;3788;49.902;8.590;2024-02-15T13:15:39;16.60;98.50
7494;DHT22;3788;49.902;8.590;2024-02-15T13:18:06;16.50;98.00
7494;DHT22;3788;49.902;8.590;2024-02-15T13:20:35;16.50;98.00
7494;DHT22;3788;49.902;8.590;2024-02-15T13:23:05;16.40;97.80
7494;DHT22;3788;49.902;8.590;2024-02-15T13:25:34;16.40;97.90
7494;DHT22;3788;49.902;8.590;2024-02-15T13:28:01;16.40;97.20
7494;DHT22;3788;49.902;8.590;2024-02-15T13:30:29;16.30;97.20
7494;DHT22;3788;49.902;8.590;2024-02-15T13:32:56;16.30;97.30
7494;DHT22;3788;49.902;8.590;2024-02-15T13:35:23;16.30;97.40
7494;DHT22;3788;49.902;8.590;2024-02-15T13:37:51;16.30;97.70
7494;DHT22;3788;49.902;8.590;2024-02-15T13:40:21;16.30;97.90
7494;DHT22;3788;49.902;8.590;2024-02-15T13:42:50;16.30;97.90
7494;DHT22;3788;49.902;8.590;2024-02-15T13:45:19;16.30;98.10
7494;DHT22;3788;49.902;8.590;2024-02-15T13:47:48;16.30;98.10
7494;DHT22;3788;49.902;8.590;2024-02-15T13:50:16;16.30;98.30
7494;DHT22;3788;49.902;8.590;2024-02-15T13:52:44;16.30;98.50
7494;DHT22;3788;49.902;8.590;2024-02-15T13:55:11;16.20;98.60
7494;DHT22;3788;49.902;8.590;2024-02-15T13:57:41;16.20;98.70
7494;DHT22;3788;49.902;8.590;2024-02-15T14:00:09;16.20;98.70
7494;DHT22;3788;49.902;8.590;2024-02-15T14:02:40;16.20;98.50
7494;DHT22;3788;49.902;8.590;2024-02-15T14:05:08;16.10;98.50
7494;DHT22;3788;49.902;8.590;2024-02-15T14:07:37;16.20;98.70
7494;DHT22;3788;49.902;8.590;2024-02-15T14:10:05;16.20;98.70
7494;DHT22;3788;49.902;8.590;2024-02-15T14:12:32;16.10;98.60
7494;DHT22;3788;49.902;8.590;2024-02-15T14:15:01;16.10;98.80
7494;DHT22;3788;49.902;8.590;2024-02-15T14:17:28;16.10;99.00
7494;DHT22;3788;49.902;8.590;2024-02-15T14:19:55;16.10;99.20
7494;DHT22;3788;49.902;8.590;2024-02-15T14:22:23;16.10;99.40
7494;DHT22;3788;49.902;8.590;2024-02-15T14:24:53;16.10;99.40
7494;DHT22;3788;49.902;8.590;2024-02-15T14:27:20;16.10;99.50
7494;DHT22;3788;49.902;8.590;2024-02-15T14:29:47;16.10;99.70
7494;DHT22;3788;49.902;8.590;2024-02-15T14:32:29;16.00;99.90
7494;DHT22;3788;49.902;8.590;2024-02-15T14:35:13;16.00;99.80
7494;DHT22;3788;49.902;8.590;2024-02-15T14:37:42;16.00;99.60
7494;DHT22;3788;49.902;8.590;2024-02-15T14:40:10;16.00;99.50
7494;DHT22;3788;49.902;8.590;2024-02-15T14:42:39;16.00;99.50
7494;DHT22;3788;49.902;8.590;2024-02-15T14:45:08;16.00;99.50
7494;DHT22;3788;49.902;8.590;2024-02-15T14:47:36;16.00;99.50
7494;DHT22;3788;49.902;8.590;2024-02-15T14:50:03;16.00;99.20
7494;DHT22;3788;49.902;8.590;2024-02-15T14:52:34;16.00;99.40
7494;DHT22;3788;49.902;8.590;2024-02-15T14:55:00;16.00;99.30
7494;DHT22;3788;49.902;8.590;2024-02-15T14:57:30;15.90;99.20
7494;DHT22;3788;49.902;8.590;2024-02-15T14:59:57;15.90;99.10
7494;DHT22;3788;49.902;8.590;2024-02-15T15:02:24;15.90;99.10
7494;DHT22;3788;49.902;8.590;2024-02-15T15:04:52;15.90;99.10
7494;DHT22;3788;49.902;8.590;2024-02-15T15:07:44;15.90;99.20
7494;DHT22;3788;49.902;8.590;2024-02-15T15:10:28;15.90;99.50
7494;DHT22;3788;49.902;8.590;2024-02-15T15:13:13;15.90;99.50
7494;DHT22;3788;49.902;8.590;2024-02-15T15:15:39;15.90;99.60
7494;DHT22;3788;49.902;8.590;2024-02-15T15:18:07;15.90;99.70
7494;DHT22;3788;49.902;8.590;2024-02-15T15:20:36;15.90;99.70
7494;DHT22;3788;49.902;8.590;2024-02-15T15:23:03;15.90;99.80
7494;DHT22;3788;49.902;8.590;2024-02-15T15:25:32;15.90;99.90
7494;DHT22;3788;49.902;8.590;2024-02-15T15:27:58;15.80;99.90
7494;DHT22;3788;49.902;8.590;2024-02-15T15:30:25;15.70;99.90
7494;DHT22;3788;49.902;8.590;2024-02-15T15:32:52;15.70;99.90
7494;DHT22;3788;49.902;8.590;2024-02-15T15:35:19;15.60;99.90
7494;DHT22;3788;49.902;8.590;2024-02-15T15:37:48;15.70;99.90
7494;DHT22;3788;49.902;8.590;2024-02-15T15:40:16;15.60;99.90
7494;DHT22;3788;49.902;8.590;2024-02-15T15:42:43;15.60;99.90
7494;DHT22;3788;49.902;8.590;2024-02-15T15:45:10;15.50;99.90
7494;DHT22;3788;49.902;8.590;2024-02-15T15:47:38;15.50;99.90
7494;DHT22;3788;49.902;8.590;2024-02-15T15:50:05;15.40;99.90
7494;DHT22;3788;49.902;8.590;2024-02-15T15:52:32;15.40;99.90
7494;DHT22;3788;49.902;8.590;2024-02-15T15:55:01;15.30;99.90
7494;DHT22;3788;49.902;8.590;2024-02-15T15:57:27;15.20;99.90
7494;DHT22;3788;49.902;8.590;2024-02-15T15:59:54;15.20;99.90
7494;DHT22;3788;49.902;8.590;2024-02-15T16:02:22;15.10;99.90
7494;DHT22;3788;49.902;8.590;2024-02-15T16:04:49;15.10;99.90
7494;DHT22;3788;49.902;8.590;2024-02-15T16:07:20;15.10;99.90
7494;DHT22;3788;49.902;8.590;2024-02-15T16:09:47;15.10;99.90
7494;DHT22;3788;49.902;8.590;2024-02-15T16:12:15;15.10;99.90